Youngstown, Indiana
Current Conditions -  °F | °C
As of 2:53 AM on Friday 21 Nov 2014 (Local Time) from KHUF Reporting Station
Clear Clear  
Wind Chill: 12°   Ceiling: Unl
Heat Index: 19°   Visibility: 10mi
Dew Point: 10°   Wind: 5mph
Humidity: 68%   Direction: 10°N
Pressure: 30.39"   Gusts: NA
Location:  39.3587°N, 87.4056°W
Report Text: KHUF 210753Z 01004KT 10SM CLR M07/M12 A3039 RMK AO2 SLP299 T10721122
Loading
Personal Weather Stations






























Interactive Weather Map New forecast layout! Learn more

10-Day Weather Forecast

Advertisements
Track Severe Weather on mobile